Time;durP1;ratioP1;P1;durP2;ratioP2;P2;SDS_P1;SDS_P2;PMS_P1;PMS_P2;Temp;Humidity;BMP_temperature;BMP_pressure;BME280_temperature;BME280_humidity;BME280_pressure;Samples;Min_cycle;Max_cycle;Signal;HPM_P1;HPM_P2
2022/08/04 00:01:08;;;;;;;;;;;24.80;70.80;;;;;;5033747;28;19920;-78
2022/08/04 00:03:54;;;;;;;;;;;24.70;70.60;;;;;;5014925;28;19914;-77
2022/08/04 00:06:33;;;;;;;;;;;24.70;70.70;;;;;;5010010;28;19917;-78
2022/08/04 00:09:01;;;;;;;;;;;24.60;71.00;;;;;;5035780;28;19920;-78
2022/08/04 00:11:29;;;;;;;;;;;24.60;71.20;;;;;;5020863;28;19917;-78
2022/08/04 00:13:56;;;;;;;;;;;24.50;71.10;;;;;;5021415;28;20317;-78
2022/08/04 00:16:23;;;;;;;;;;;24.50;71.10;;;;;;5027567;28;19917;-78
2022/08/04 00:19:00;;;;;;;;;;;24.50;71.20;;;;;;5021666;28;19913;-78
2022/08/04 00:21:26;;;;;;;;;;;24.50;71.70;;;;;;5003108;28;20016;-78
2022/08/04 00:23:53;;;;;;;;;;;24.50;71.70;;;;;;5025618;28;19917;-78
2022/08/04 00:26:19;;;;;;;;;;;24.40;71.40;;;;;;5021420;28;20708;-78
2022/08/04 00:28:45;;;;;;;;;;;24.40;71.90;;;;;;5021558;28;19921;-78
2022/08/04 00:31:13;;;;;;;;;;;24.30;72.00;;;;;;5017397;28;19924;-78
2022/08/04 00:33:39;;;;;;;;;;;24.30;72.00;;;;;;5040375;28;19912;-78
2022/08/04 00:36:04;;;;;;;;;;;24.30;72.10;;;;;;5042563;28;20420;-78
2022/08/04 00:38:31;;;;;;;;;;;24.30;72.10;;;;;;5030005;28;19952;-78
2022/08/04 00:40:59;;;;;;;;;;;24.30;72.40;;;;;;5027350;28;19921;-78
2022/08/04 00:43:25;;;;;;;;;;;24.20;72.30;;;;;;5025235;28;20662;-78
2022/08/04 00:46:18;;;;;;;;;;;24.20;72.50;;;;;;5034802;28;19921;-78
2022/08/04 00:48:53;;;;;;;;;;;24.10;72.60;;;;;;5039367;28;20001;-78
2022/08/04 00:51:39;;;;;;;;;;;24.10;72.70;;;;;;5030696;28;20301;-78
2022/08/04 00:54:19;;;;;;;;;;;24.10;72.70;;;;;;5029407;28;19992;-79
2022/08/04 00:57:03;;;;;;;;;;;24.10;73.00;;;;;;5022769;28;19913;-78
2022/08/04 00:59:44;;;;;;;;;;;24.00;73.00;;;;;;5020734;28;19913;-78
2022/08/04 01:02:34;;;;;;;;;;;24.00;73.00;;;;;;5022470;28;19921;-78
2022/08/04 01:05:14;;;;;;;;;;;23.90;73.00;;;;;;5011808;28;19952;-78
2022/08/04 01:07:42;;;;;;;;;;;23.90;73.10;;;;;;5037311;28;19913;-78
2022/08/04 01:10:16;;;;;;;;;;;23.90;73.40;;;;;;5024751;28;19909;-78
2022/08/04 01:12:57;;;;;;;;;;;23.90;73.50;;;;;;5006913;28;19955;-78
2022/08/04 01:15:25;;;;;;;;;;;23.90;73.50;;;;;;5006902;28;20011;-78
2022/08/04 01:18:04;;;;;;;;;;;23.80;73.70;;;;;;5028271;28;19920;-78
2022/08/04 01:20:40;;;;;;;;;;;23.80;73.70;;;;;;5032613;28;19925;-78
2022/08/04 01:23:15;;;;;;;;;;;23.80;73.90;;;;;;5031380;28;20301;-78
2022/08/04 01:25:41;;;;;;;;;;;23.70;74.00;;;;;;5007167;28;19917;-79
2022/08/04 01:28:33;;;;;;;;;;;23.70;74.00;;;;;;5027074;28;20056;-78
2022/08/04 01:31:06;;;;;;;;;;;23.70;74.10;;;;;;4999655;28;19920;-77
2022/08/04 01:33:33;;;;;;;;;;;23.70;74.30;;;;;;5031714;28;19912;-78
2022/08/04 01:36:03;;;;;;;;;;;23.70;74.40;;;;;;5033041;28;19909;-78
2022/08/04 01:38:33;;;;;;;;;;;23.60;74.30;;;;;;5023854;28;19925;-78
2022/08/04 01:41:01;;;;;;;;;;;23.60;74.40;;;;;;5009689;28;19921;-77
2022/08/04 01:43:27;;;;;;;;;;;23.60;74.50;;;;;;5024372;28;20698;-78
2022/08/04 01:45:57;;;;;;;;;;;23.60;74.60;;;;;;5031577;28;19924;-78
2022/08/04 01:48:24;;;;;;;;;;;23.50;74.60;;;;;;5029235;28;19917;-78
2022/08/04 01:50:51;;;;;;;;;;;23.50;74.80;;;;;;5042148;28;20657;-78
2022/08/04 01:53:18;;;;;;;;;;;23.50;74.90;;;;;;5010734;28;19982;-78
2022/08/04 01:55:45;;;;;;;;;;;23.50;75.00;;;;;;5026942;28;20548;-78
2022/08/04 01:58:11;;;;;;;;;;;23.40;75.00;;;;;;5032278;28;20014;-78
2022/08/04 02:00:42;;;;;;;;;;;23.40;75.90;;;;;;5023901;28;19922;-78
2022/08/04 02:03:08;;;;;;;;;;;23.40;75.20;;;;;;5034901;28;20007;-78
2022/08/04 02:05:33;;;;;;;;;;;23.40;75.40;;;;;;5040130;28;20104;-78
2022/08/04 02:08:19;;;;;;;;;;;23.30;75.40;;;;;;5027839;28;19913;-78
2022/08/04 02:10:44;;;;;;;;;;;23.30;75.40;;;;;;5029919;28;20427;-78
2022/08/04 02:13:22;;;;;;;;;;;23.30;75.40;;;;;;5023747;28;19913;-78
2022/08/04 02:15:55;;;;;;;;;;;23.30;75.50;;;;;;5027450;28;19951;-78
2022/08/04 02:18:26;;;;;;;;;;;23.20;75.60;;;;;;5051008;28;19938;-78
2022/08/04 02:20:59;;;;;;;;;;;23.20;75.70;;;;;;5019579;28;19924;-78
2022/08/04 02:23:29;;;;;;;;;;;23.20;75.80;;;;;;5037128;28;20551;-78
2022/08/04 02:25:56;;;;;;;;;;;23.20;75.90;;;;;;5029955;28;19917;-77
2022/08/04 02:28:25;;;;;;;;;;;23.10;75.90;;;;;;5022803;28;19920;-78
2022/08/04 02:30:50;;;;;;;;;;;23.10;75.90;;;;;;5010518;28;19980;-77
2022/08/04 02:33:22;;;;;;;;;;;23.10;75.90;;;;;;5040288;28;19917;-78
2022/08/04 02:35:51;;;;;;;;;;;23.10;76.00;;;;;;5027652;28;19919;-78
2022/08/04 02:38:35;;;;;;;;;;;23.10;76.10;;;;;;5027936;28;20020;-78
2022/08/04 02:41:01;;;;;;;;;;;23.10;76.00;;;;;;5029855;28;19932;-79
2022/08/04 02:43:27;;;;;;;;;;;23.00;76.20;;;;;;5033613;28;19981;-78
2022/08/04 02:45:54;;;;;;;;;;;23.00;76.20;;;;;;5032737;28;19918;-78
2022/08/04 02:48:22;;;;;;;;;;;23.00;76.40;;;;;;5023128;28;19913;-78
2022/08/04 02:50:48;;;;;;;;;;;23.00;76.40;;;;;;5022761;28;20381;-78
2022/08/04 02:53:14;;;;;;;;;;;22.90;76.40;;;;;;5035685;28;20523;-78
2022/08/04 02:55:43;;;;;;;;;;;22.90;76.40;;;;;;5022699;28;19924;-78
2022/08/04 02:58:09;;;;;;;;;;;22.90;76.60;;;;;;5022001;28;19956;-78
2022/08/04 03:00:36;;;;;;;;;;;22.90;76.70;;;;;;5022591;28;19994;-79
2022/08/04 03:03:10;;;;;;;;;;;22.90;76.70;;;;;;5024741;28;19937;-79
2022/08/04 03:05:38;;;;;;;;;;;22.90;76.90;;;;;;5027396;28;19919;-78
2022/08/04 03:08:10;;;;;;;;;;;22.80;76.90;;;;;;5023338;28;20382;-78
2022/08/04 03:10:44;;;;;;;;;;;22.80;77.00;;;;;;5033274;28;20253;-79
2022/08/04 03:13:28;;;;;;;;;;;22.80;77.00;;;;;;5022599;28;19913;-78
2022/08/04 03:15:56;;;;;;;;;;;22.80;77.00;;;;;;5032627;28;19977;-78
2022/08/04 03:18:41;;;;;;;;;;;22.80;77.10;;;;;;5004365;28;20027;-78
2022/08/04 03:21:06;;;;;;;;;;;22.70;77.10;;;;;;5028736;28;19928;-79
2022/08/04 03:23:35;;;;;;;;;;;22.70;77.10;;;;;;5004593;28;19917;-79
2022/08/04 03:26:03;;;;;;;;;;;22.70;77.30;;;;;;5011330;28;20314;-78
2022/08/04 03:28:47;;;;;;;;;;;22.70;77.30;;;;;;5023554;28;19917;-78
2022/08/04 03:31:31;;;;;;;;;;;22.70;77.30;;;;;;5004144;28;19913;-79
2022/08/04 03:33:56;;;;;;;;;;;22.60;77.30;;;;;;5022224;28;19924;-79
2022/08/04 03:36:22;;;;;;;;;;;22.60;77.30;;;;;;5004012;28;19913;-78
2022/08/04 03:39:02;;;;;;;;;;;22.60;77.50;;;;;;5028019;28;19920;-79
2022/08/04 03:41:47;;;;;;;;;;;22.50;77.40;;;;;;5005220;28;20032;-79
2022/08/04 03:44:37;;;;;;;;;;;22.50;77.50;;;;;;5022100;28;20032;-79
2022/08/04 03:47:12;;;;;;;;;;;22.60;77.70;;;;;;5026599;28;19916;-79
2022/08/04 03:49:46;;;;;;;;;;;22.50;77.60;;;;;;5030005;28;20311;-79
2022/08/04 03:55:15;;;;;;;;;;;22.50;77.70;;;;;;5022061;28;20066;-78
2022/08/04 03:57:59;;;;;;;;;;;22.50;77.70;;;;;;5003790;28;19917;-77
2022/08/04 04:00:48;;;;;;;;;;;22.40;77.70;;;;;;5024807;28;20035;-78
2022/08/04 04:03:14;;;;;;;;;;;22.40;77.80;;;;;;5006784;28;19920;-78
2022/08/04 04:05:48;;;;;;;;;;;22.40;77.90;;;;;;5028528;28;19912;-79
2022/08/04 04:08:33;;;;;;;;;;;22.40;78.00;;;;;;5021493;28;19920;-79
2022/08/04 04:11:01;;;;;;;;;;;22.40;78.00;;;;;;5010429;28;22077;-78
2022/08/04 04:13:38;;;;;;;;;;;22.40;78.10;;;;;;5021292;28;19952;-79
2022/08/04 04:16:19;;;;;;;;;;;22.30;77.90;;;;;;5025261;28;19924;-79
2022/08/04 04:18:54;;;;;;;;;;;22.30;78.00;;;;;;5012555;28;19920;-79
2022/08/04 04:21:22;;;;;;;;;;;22.30;78.70;;;;;;5043400;28;19924;-79
2022/08/04 04:24:00;;;;;;;;;;;22.30;78.20;;;;;;5036374;28;19916;-79
2022/08/04 04:26:25;;;;;;;;;;;22.20;78.30;;;;;;5036520;28;19923;-78
2022/08/04 04:28:57;;;;;;;;;;;22.20;78.20;;;;;;5025792;28;19917;-78
2022/08/04 04:31:34;;;;;;;;;;;22.20;78.30;;;;;;5042692;28;19913;-79
2022/08/04 04:34:09;;;;;;;;;;;22.30;78.30;;;;;;5042388;28;19948;-79
2022/08/04 04:36:35;;;;;;;;;;;22.20;78.40;;;;;;5040024;28;19913;-79
2022/08/04 04:39:01;;;;;;;;;;;22.20;78.30;;;;;;5029639;28;19913;-78
2022/08/04 04:41:30;;;;;;;;;;;22.20;78.40;;;;;;5025647;28;19929;-79
2022/08/04 04:43:58;;;;;;;;;;;22.20;78.40;;;;;;5024995;28;19920;-79
2022/08/04 04:46:32;;;;;;;;;;;22.10;78.40;;;;;;5024340;28;19925;-79
2022/08/04 04:49:13;;;;;;;;;;;22.20;78.60;;;;;;5036063;28;19920;-78
2022/08/04 04:51:43;;;;;;;;;;;22.10;78.50;;;;;;5024581;28;20373;-78
2022/08/04 04:54:21;;;;;;;;;;;22.20;78.60;;;;;;5031583;28;19961;-79
2022/08/04 04:56:50;;;;;;;;;;;22.10;78.60;;;;;;5023690;28;19913;-79
2022/08/04 04:59:19;;;;;;;;;;;22.10;78.60;;;;;;5035709;28;19920;-78
2022/08/04 05:01:44;;;;;;;;;;;22.10;78.60;;;;;;5031343;28;19921;-78
2022/08/04 05:04:10;;;;;;;;;;;22.10;78.40;;;;;;5028802;28;19913;-78
2022/08/04 05:06:43;;;;;;;;;;;22.10;78.60;;;;;;5028685;28;19924;-79
2022/08/04 05:09:17;;;;;;;;;;;22.10;78.60;;;;;;5024480;28;20358;-79
2022/08/04 05:11:42;;;;;;;;;;;22.10;78.60;;;;;;5023126;28;19913;-78
2022/08/04 05:14:17;;;;;;;;;;;22.10;78.50;;;;;;5035195;28;19920;-78
2022/08/04 05:16:48;;;;;;;;;;;22.10;78.70;;;;;;5014208;28;19918;-78
2022/08/04 05:19:13;;;;;;;;;;;22.10;78.50;;;;;;5022887;28;19920;-78
2022/08/04 05:21:42;;;;;;;;;;;22.10;78.70;;;;;;5011912;28;20285;-79
2022/08/04 05:24:09;;;;;;;;;;;22.10;78.50;;;;;;5042203;28;19912;-78
2022/08/04 05:26:39;;;;;;;;;;;22.10;78.60;;;;;;5041977;28;19925;-78
2022/08/04 05:29:06;;;;;;;;;;;22.10;78.60;;;;;;5041378;27;19913;-78
2022/08/04 05:31:35;;;;;;;;;;;22.10;78.50;;;;;;5008336;28;19958;-79
2022/08/04 05:34:10;;;;;;;;;;;22.10;78.40;;;;;;5035777;28;19972;-79
2022/08/04 05:36:40;;;;;;;;;;;22.10;78.50;;;;;;5026928;28;20419;-79
2022/08/04 05:39:09;;;;;;;;;;;22.10;78.20;;;;;;5041055;28;19956;-79
2022/08/04 05:41:34;;;;;;;;;;;22.10;78.40;;;;;;5024250;28;19981;-79
2022/08/04 05:44:00;;;;;;;;;;;22.10;78.60;;;;;;5039117;28;20361;-79
2022/08/04 05:46:27;;;;;;;;;;;22.10;78.50;;;;;;5023627;28;19921;-78
2022/08/04 05:48:52;;;;;;;;;;;22.10;78.20;;;;;;5020306;28;19913;-78
2022/08/04 05:51:19;;;;;;;;;;;22.10;78.10;;;;;;5040201;28;19916;-79
2022/08/04 05:53:46;;;;;;;;;;;22.20;78.30;;;;;;5030140;28;20420;-79
2022/08/04 05:56:12;;;;;;;;;;;22.20;78.40;;;;;;5006568;28;19913;-78
2022/08/04 05:58:39;;;;;;;;;;;22.20;78.20;;;;;;5030873;28;19921;-79
2022/08/04 06:01:06;;;;;;;;;;;22.20;78.00;;;;;;5035228;28;19921;-78
2022/08/04 06:03:33;;;;;;;;;;;22.20;77.80;;;;;;5024010;28;19917;-79
2022/08/04 06:05:59;;;;;;;;;;;22.20;77.90;;;;;;5036401;28;19992;-79
2022/08/04 06:08:25;;;;;;;;;;;22.20;77.70;;;;;;5035262;28;19913;-79
2022/08/04 06:10:51;;;;;;;;;;;22.20;78.00;;;;;;5029678;28;19916;-78
2022/08/04 06:13:19;;;;;;;;;;;22.20;77.70;;;;;;5030040;28;19920;-79
2022/08/04 06:15:47;;;;;;;;;;;22.20;77.50;;;;;;5011648;28;20376;-78
2022/08/04 06:18:13;;;;;;;;;;;22.20;77.60;;;;;;5024066;28;20316;-78
2022/08/04 06:20:41;;;;;;;;;;;22.20;77.50;;;;;;5052870;28;19921;-78
2022/08/04 06:23:12;;;;;;;;;;;22.30;77.60;;;;;;5042034;28;19916;-78
2022/08/04 06:25:43;;;;;;;;;;;22.30;77.60;;;;;;5015703;28;20010;-79
2022/08/04 06:28:09;;;;;;;;;;;22.30;77.50;;;;;;5025371;28;20308;-79
2022/08/04 06:30:35;;;;;;;;;;;22.30;77.50;;;;;;5030181;28;19921;-78
2022/08/04 06:33:02;;;;;;;;;;;22.30;77.30;;;;;;5028286;28;19913;-78
2022/08/04 06:35:29;;;;;;;;;;;22.30;77.20;;;;;;5006089;28;19912;-79
2022/08/04 06:37:56;;;;;;;;;;;22.40;77.30;;;;;;5041185;28;19912;-78
2022/08/04 06:40:23;;;;;;;;;;;22.30;77.20;;;;;;5022926;28;19956;-78
2022/08/04 06:42:49;;;;;;;;;;;22.40;77.00;;;;;;5035484;28;19913;-78
2022/08/04 06:45:15;;;;;;;;;;;22.40;76.90;;;;;;5028293;28;20310;-78
2022/08/04 06:47:41;;;;;;;;;;;22.50;76.90;;;;;;5033049;28;20003;-78
2022/08/04 06:50:10;;;;;;;;;;;22.50;76.70;;;;;;5028921;28;19917;-78
2022/08/04 06:52:36;;;;;;;;;;;22.50;76.70;;;;;;5029019;28;19913;-78
2022/08/04 06:55:02;;;;;;;;;;;22.60;76.80;;;;;;5016804;28;19920;-78
2022/08/04 06:57:29;;;;;;;;;;;22.60;76.80;;;;;;5023528;28;19909;-78
2022/08/04 06:59:57;;;;;;;;;;;22.60;76.50;;;;;;5036247;28;20590;-78
2022/08/04 07:02:26;;;;;;;;;;;22.60;76.60;;;;;;5040787;28;19927;-78
2022/08/04 07:04:52;;;;;;;;;;;22.70;76.50;;;;;;5021885;28;19913;-78
2022/08/04 07:07:18;;;;;;;;;;;22.70;76.40;;;;;;5022659;28;19932;-78
2022/08/04 07:09:43;;;;;;;;;;;22.80;76.10;;;;;;5022622;28;19913;-79
2022/08/04 07:12:09;;;;;;;;;;;22.80;76.10;;;;;;5027216;28;20051;-79
2022/08/04 07:14:35;;;;;;;;;;;22.90;75.90;;;;;;5039824;28;19924;-78
2022/08/04 07:17:05;;;;;;;;;;;22.80;76.10;;;;;;5025350;28;20662;-78
2022/08/04 07:19:32;;;;;;;;;;;22.90;75.60;;;;;;5032261;28;20011;-78
2022/08/04 07:22:01;;;;;;;;;;;22.90;75.90;;;;;;5040923;28;20376;-78
2022/08/04 07:24:30;;;;;;;;;;;23.00;75.50;;;;;;5038175;28;19921;-79
2022/08/04 07:26:55;;;;;;;;;;;23.00;75.60;;;;;;5023076;28;19917;-78
2022/08/04 07:29:21;;;;;;;;;;;23.00;75.50;;;;;;5022561;28;19913;-78
2022/08/04 07:31:48;;;;;;;;;;;23.10;75.60;;;;;;5022487;28;19924;-79
2022/08/04 07:34:13;;;;;;;;;;;23.10;75.40;;;;;;5022179;28;19917;-78
2022/08/04 07:36:39;;;;;;;;;;;23.10;75.00;;;;;;5022352;28;19914;-78
2022/08/04 07:39:04;;;;;;;;;;;23.10;74.90;;;;;;5022545;28;19936;-78
2022/08/04 07:41:30;;;;;;;;;;;23.20;75.00;;;;;;5022858;28;19973;-78
2022/08/04 07:43:56;;;;;;;;;;;23.30;74.80;;;;;;5024096;28;19917;-79
2022/08/04 07:46:21;;;;;;;;;;;23.30;74.70;;;;;;5025834;28;19921;-78
2022/08/04 07:48:47;;;;;;;;;;;23.30;74.50;;;;;;5025578;28;19917;-79
2022/08/04 07:51:13;;;;;;;;;;;23.40;74.40;;;;;;5030244;28;19920;-78
2022/08/04 07:53:39;;;;;;;;;;;23.40;74.50;;;;;;5039785;28;19912;-78
2022/08/04 07:56:04;;;;;;;;;;;23.40;74.50;;;;;;5043109;28;20229;-78
2022/08/04 07:58:30;;;;;;;;;;;23.50;74.30;;;;;;5032486;28;19912;-78
2022/08/04 08:00:56;;;;;;;;;;;23.60;74.10;;;;;;5032648;28;19924;-78
2022/08/04 08:03:22;;;;;;;;;;;23.60;73.80;;;;;;5043951;28;20157;-78
2022/08/04 08:05:48;;;;;;;;;;;23.70;73.80;;;;;;5035772;28;19958;-78
2022/08/04 08:08:14;;;;;;;;;;;23.70;73.50;;;;;;5041781;28;19913;-78
2022/08/04 08:10:44;;;;;;;;;;;23.70;73.50;;;;;;5040149;28;20024;-78
2022/08/04 08:13:10;;;;;;;;;;;23.80;73.40;;;;;;5026220;28;20003;-78
2022/08/04 08:15:36;;;;;;;;;;;23.80;73.30;;;;;;5038108;28;20024;-78
2022/08/04 08:18:01;;;;;;;;;;;23.90;73.10;;;;;;5013521;28;19971;-78
2022/08/04 08:20:30;;;;;;;;;;;23.90;73.00;;;;;;5041140;28;19920;-78
2022/08/04 08:22:56;;;;;;;;;;;24.00;73.00;;;;;;5022387;28;19913;-78
2022/08/04 08:25:22;;;;;;;;;;;24.00;72.70;;;;;;5043558;28;19919;-78
2022/08/04 08:27:47;;;;;;;;;;;24.10;72.50;;;;;;5023560;28;20388;-79
2022/08/04 08:30:13;;;;;;;;;;;24.10;72.30;;;;;;5040776;28;19913;-78
2022/08/04 08:32:39;;;;;;;;;;;24.20;72.40;;;;;;5043527;28;19920;-78
2022/08/04 08:35:05;;;;;;;;;;;24.20;72.20;;;;;;5040131;28;19917;-78
2022/08/04 08:37:39;;;;;;;;;;;24.20;72.20;;;;;;5032703;28;19913;-78
2022/08/04 08:40:24;;;;;;;;;;;24.30;72.10;;;;;;5033382;28;19917;-78
2022/08/04 08:42:52;;;;;;;;;;;24.30;71.90;;;;;;5005871;28;19917;-78
2022/08/04 08:45:36;;;;;;;;;;;24.40;71.80;;;;;;5025981;28;20612;-78
2022/08/04 08:48:19;;;;;;;;;;;24.50;71.70;;;;;;5025142;28;19913;-78
2022/08/04 08:50:54;;;;;;;;;;;24.50;71.50;;;;;;5030478;28;19912;-79
2022/08/04 08:53:28;;;;;;;;;;;24.60;71.10;;;;;;5028443;28;19916;-78
2022/08/04 08:56:13;;;;;;;;;;;24.70;71.00;;;;;;5042950;28;20289;-78
2022/08/04 08:58:53;;;;;;;;;;;24.70;70.90;;;;;;5035603;28;20323;-78
2022/08/04 09:01:29;;;;;;;;;;;24.70;70.90;;;;;;5040797;28;20071;-79
2022/08/04 09:04:00;;;;;;;;;;;24.80;70.80;;;;;;5036009;28;19920;-78
2022/08/04 09:06:46;;;;;;;;;;;24.90;70.60;;;;;;5042147;28;19920;-78
2022/08/04 09:09:30;;;;;;;;;;;24.90;70.40;;;;;;5027259;28;20499;-78
2022/08/04 09:12:13;;;;;;;;;;;25.00;70.30;;;;;;5034833;28;19948;-78
2022/08/04 09:14:38;;;;;;;;;;;25.00;70.30;;;;;;5021744;28;19937;-78
2022/08/04 09:17:11;;;;;;;;;;;25.10;70.20;;;;;;5026721;28;19959;-78
2022/08/04 09:19:41;;;;;;;;;;;25.10;70.10;;;;;;5043631;28;20373;-78
2022/08/04 09:22:16;;;;;;;;;;;25.20;69.90;;;;;;5018733;28;19941;-78
2022/08/04 09:24:45;;;;;;;;;;;25.30;69.70;;;;;;5024680;28;19949;-78
2022/08/04 09:27:24;;;;;;;;;;;25.30;69.50;;;;;;5037371;28;19917;-78
2022/08/04 09:30:09;;;;;;;;;;;25.40;69.40;;;;;;5029441;28;19913;-78
2022/08/04 09:32:38;;;;;;;;;;;25.50;69.10;;;;;;5042680;28;19913;-78
2022/08/04 09:35:24;;;;;;;;;;;25.60;69.20;;;;;;5024536;28;19919;-78
2022/08/04 09:37:50;;;;;;;;;;;25.60;68.80;;;;;;5036356;28;19913;-78
2022/08/04 09:40:22;;;;;;;;;;;25.60;68.80;;;;;;5022667;28;19924;-78
2022/08/04 09:43:11;;;;;;;;;;;25.80;68.80;;;;;;5024240;28;20011;-78
2022/08/04 09:45:37;;;;;;;;;;;25.80;68.50;;;;;;5029377;28;19929;-78
2022/08/04 09:48:08;;;;;;;;;;;25.90;68.50;;;;;;5024154;28;19936;-78
2022/08/04 09:50:34;;;;;;;;;;;26.00;68.30;;;;;;5024079;28;19913;-78
2022/08/04 09:53:15;;;;;;;;;;;26.10;68.10;;;;;;5023614;28;19958;-78
2022/08/04 09:55:44;;;;;;;;;;;26.20;68.00;;;;;;5023890;28;20285;-78
2022/08/04 09:58:28;;;;;;;;;;;26.20;68.10;;;;;;5026718;28;19920;-78
2022/08/04 10:01:00;;;;;;;;;;;26.30;67.90;;;;;;5027407;28;19928;-77
2022/08/04 10:03:30;;;;;;;;;;;26.40;67.60;;;;;;5037929;28;19920;-78
2022/08/04 10:06:24;;;;;;;;;;;26.40;67.50;;;;;;5028978;28;19913;-78
2022/08/04 10:08:49;;;;;;;;;;;26.60;67.40;;;;;;5039973;28;20020;-78
2022/08/04 10:11:30;;;;;;;;;;;26.70;66.90;;;;;;5032133;28;20027;-78
2022/08/04 10:13:58;;;;;;;;;;;26.80;66.80;;;;;;5025796;28;19917;-78
2022/08/04 10:16:40;;;;;;;;;;;26.90;66.40;;;;;;5031032;28;19926;-78
2022/08/04 10:19:14;;;;;;;;;;;27.00;66.40;;;;;;5036186;28;20610;-78
2022/08/04 10:21:58;;;;;;;;;;;27.10;66.40;;;;;;5023416;28;19917;-78
2022/08/04 10:24:51;;;;;;;;;;;27.20;65.60;;;;;;5023521;28;19913;-77
2022/08/04 10:27:16;;;;;;;;;;;27.20;65.80;;;;;;5020274;28;20429;-77
2022/08/04 10:29:43;;;;;;;;;;;27.30;65.90;;;;;;5005153;28;19973;-78
2022/08/04 10:32:21;;;;;;;;;;;27.40;65.70;;;;;;5023332;28;20539;-78
2022/08/04 10:34:55;;;;;;;;;;;27.30;66.00;;;;;;5035237;28;20391;-78
2022/08/04 10:37:23;;;;;;;;;;;27.40;65.90;;;;;;5017677;28;20409;-77
2022/08/04 10:40:35;;;;;;;;;;;27.40;66.10;;;;;;5017304;28;20008;-77
2022/08/04 10:42:36;;;;;;;;;;;27.40;66.00;;;;;;5019847;28;19923;-77
2022/08/04 10:45:01;;;;;;;;;;;27.50;66.10;;;;;;5004951;28;19921;-77
2022/08/04 10:47:32;;;;;;;;;;;27.50;66.20;;;;;;5030983;28;19977;-77
2022/08/04 10:50:00;;;;;;;;;;;27.60;66.00;;;;;;5016433;28;19917;-77
2022/08/04 10:52:40;;;;;;;;;;;27.60;66.00;;;;;;5034517;28;20344;-77
2022/08/04 10:55:11;;;;;;;;;;;27.70;65.60;;;;;;5038025;28;20013;-77
2022/08/04 10:57:44;;;;;;;;;;;27.90;65.30;;;;;;5022299;28;20413;-78
2022/08/04 11:00:18;;;;;;;;;;;28.10;65.20;;;;;;5022605;28;19914;-77
2022/08/04 11:02:44;;;;;;;;;;;28.20;64.90;;;;;;5016547;28;19917;-77
2022/08/04 11:05:09;;;;;;;;;;;28.40;64.60;;;;;;5022520;28;19913;-78
2022/08/04 11:07:36;;;;;;;;;;;28.60;64.00;;;;;;5035402;28;19917;-78
2022/08/04 11:10:01;;;;;;;;;;;28.70;64.80;;;;;;5034177;28;20578;-77
2022/08/04 11:12:27;;;;;;;;;;;28.70;64.10;;;;;;5041010;28;19913;-79
2022/08/04 11:15:03;;;;;;;;;;;28.70;64.90;;;;;;5040340;28;19912;-78
2022/08/04 11:17:34;;;;;;;;;;;28.70;65.00;;;;;;5015708;28;19920;-77
2022/08/04 11:20:18;;;;;;;;;;;28.70;64.70;;;;;;5016199;28;19913;-77
2022/08/04 11:23:02;;;;;;;;;;;28.80;64.70;;;;;;5021788;28;19931;-77
2022/08/04 11:25:43;;;;;;;;;;;28.80;64.80;;;;;;5035008;28;19913;-77
2022/08/04 11:28:14;;;;;;;;;;;28.80;65.10;;;;;;5036686;28;19909;-77
2022/08/04 11:30:44;;;;;;;;;;;28.90;64.80;;;;;;5016857;28;19920;-77
2022/08/04 11:33:15;;;;;;;;;;;29.00;64.80;;;;;;5023697;28;20439;-77
2022/08/04 11:35:45;;;;;;;;;;;29.20;64.40;;;;;;5023675;28;20037;-77
2022/08/04 11:38:30;;;;;;;;;;;29.40;64.20;;;;;;5022300;28;20008;-78
2022/08/04 11:40:57;;;;;;;;;;;29.40;64.20;;;;;;5029293;28;20047;-77
2022/08/04 11:43:31;;;;;;;;;;;29.40;64.40;;;;;;5040529;28;19913;-77
2022/08/04 11:46:02;;;;;;;;;;;29.40;62.80;;;;;;5008634;28;19932;-77
2022/08/04 11:48:40;;;;;;;;;;;29.40;63.70;;;;;;5022136;28;20009;-77
2022/08/04 11:51:06;;;;;;;;;;;29.50;63.50;;;;;;5022036;28;19920;-77
2022/08/04 11:53:36;;;;;;;;;;;29.50;64.10;;;;;;5036901;28;19913;-77
2022/08/04 11:56:02;;;;;;;;;;;29.50;63.90;;;;;;5021522;28;19920;-78
2022/08/04 11:58:28;;;;;;;;;;;29.60;64.10;;;;;;5011899;28;19924;-78
2022/08/04 12:01:22;;;;;;;;;;;29.60;63.90;;;;;;5026350;28;19917;-78
2022/08/04 12:04:00;;;;;;;;;;;29.70;63.30;;;;;;4975628;28;19914;-77
2022/08/04 12:06:42;;;;;;;;;;;29.70;63.90;;;;;;5017255;28;19917;-78
2022/08/04 12:09:16;;;;;;;;;;;29.70;63.80;;;;;;5023091;28;19924;-78
2022/08/04 12:11:42;;;;;;;;;;;29.70;63.80;;;;;;5020006;28;19914;-77
2022/08/04 12:14:22;;;;;;;;;;;29.60;63.50;;;;;;5023288;28;20287;-78
2022/08/04 12:16:59;;;;;;;;;;;29.60;63.60;;;;;;5019455;28;20541;-78
2022/08/04 12:19:27;;;;;;;;;;;29.60;63.50;;;;;;5020673;28;19913;-78
2022/08/04 12:21:54;;;;;;;;;;;29.50;64.40;;;;;;5020789;28;20467;-78
2022/08/04 12:24:21;;;;;;;;;;;29.50;62.80;;;;;;5022634;28;19974;-77
2022/08/04 12:26:58;;;;;;;;;;;29.40;64.20;;;;;;5019772;28;19952;-77
2022/08/04 12:29:26;;;;;;;;;;;29.40;64.60;;;;;;5004101;28;19923;-79
2022/08/04 12:32:05;;;;;;;;;;;29.40;65.20;;;;;;5024769;28;20057;-78
2022/08/04 12:34:30;;;;;;;;;;;29.30;64.30;;;;;;5024683;28;19938;-77
2022/08/04 12:37:14;;;;;;;;;;;29.30;64.80;;;;;;5026020;28;19918;-78
2022/08/04 12:39:42;;;;;;;;;;;29.30;64.70;;;;;;5023737;28;20370;-78
2022/08/04 12:42:14;;;;;;;;;;;29.30;64.60;;;;;;5023842;28;19921;-78
2022/08/04 12:44:41;;;;;;;;;;;29.30;64.90;;;;;;5023615;28;20647;-78
2022/08/04 12:47:08;;;;;;;;;;;29.20;64.50;;;;;;5024064;28;20542;-78
2022/08/04 12:49:36;;;;;;;;;;;29.20;64.50;;;;;;5024306;28;19919;-78
2022/08/04 12:52:06;;;;;;;;;;;29.20;64.80;;;;;;5025426;28;19956;-77
2022/08/04 12:54:32;;;;;;;;;;;29.20;64.80;;;;;;5021391;28;19913;-78
2022/08/04 12:57:00;;;;;;;;;;;29.20;65.00;;;;;;5024510;28;19973;-77
2022/08/04 12:59:25;;;;;;;;;;;29.20;65.40;;;;;;5024072;28;19914;-77
2022/08/04 13:01:52;;;;;;;;;;;29.30;64.60;;;;;;5023168;28;19924;-77
2022/08/04 13:04:19;;;;;;;;;;;29.20;63.90;;;;;;5023344;28;19912;-78
2022/08/04 13:06:52;;;;;;;;;;;29.30;64.80;;;;;;5021240;28;19917;-78
2022/08/04 13:09:19;;;;;;;;;;;29.30;64.50;;;;;;5023653;28;19935;-77
2022/08/04 13:12:03;;;;;;;;;;;29.30;64.70;;;;;;5023552;28;19971;-78
2022/08/04 13:14:34;;;;;;;;;;;29.40;64.70;;;;;;5022875;28;19925;-77
2022/08/04 13:17:00;;;;;;;;;;;29.40;64.50;;;;;;5022656;28;20306;-78
2022/08/04 13:19:27;;;;;;;;;;;29.60;64.20;;;;;;5023886;28;19913;-78
2022/08/04 13:21:53;;;;;;;;;;;29.60;64.10;;;;;;5025428;28;19921;-77
2022/08/04 13:24:21;;;;;;;;;;;29.70;64.00;;;;;;5041409;28;20504;-77
2022/08/04 13:26:48;;;;;;;;;;;29.80;63.80;;;;;;5016666;28;19917;-78
2022/08/04 13:29:14;;;;;;;;;;;29.80;64.10;;;;;;5022748;28;19917;-78
2022/08/04 13:31:42;;;;;;;;;;;29.80;64.00;;;;;;5022064;28;19974;-77
2022/08/04 13:34:08;;;;;;;;;;;29.80;64.20;;;;;;5027425;28;19912;-78
2022/08/04 13:36:34;;;;;;;;;;;29.80;64.30;;;;;;5040564;28;19913;-78
2022/08/04 13:39:06;;;;;;;;;;;29.90;64.50;;;;;;5041128;28;19965;-78
2022/08/04 13:41:33;;;;;;;;;;;29.90;64.50;;;;;;5040983;28;19916;-78
2022/08/04 13:44:01;;;;;;;;;;;30.00;64.20;;;;;;5031946;28;19924;-78
2022/08/04 13:46:28;;;;;;;;;;;30.00;64.50;;;;;;5031447;28;20015;-78
2022/08/04 13:48:55;;;;;;;;;;;30.00;64.40;;;;;;5002056;28;19917;-78
2022/08/04 13:51:22;;;;;;;;;;;30.00;64.50;;;;;;5006990;28;19924;-78
2022/08/04 13:53:58;;;;;;;;;;;30.00;64.60;;;;;;5024756;28;20404;-78
2022/08/04 13:56:29;;;;;;;;;;;30.00;64.50;;;;;;5005049;28;19929;-78
2022/08/04 13:58:55;;;;;;;;;;;30.00;64.60;;;;;;5022178;28;19913;-78
2022/08/04 14:01:23;;;;;;;;;;;30.00;64.70;;;;;;5013698;28;19917;-78
2022/08/04 14:04:02;;;;;;;;;;;30.10;64.50;;;;;;5007705;28;19920;-78
2022/08/04 14:06:30;;;;;;;;;;;30.10;64.60;;;;;;5032109;28;19912;-78
2022/08/04 14:08:56;;;;;;;;;;;30.10;64.70;;;;;;5009382;28;20255;-78
2022/08/04 14:11:33;;;;;;;;;;;30.10;64.70;;;;;;5008748;28;19920;-78
2022/08/04 14:14:00;;;;;;;;;;;30.20;64.80;;;;;;5040537;28;19913;-78
2022/08/04 14:16:25;;;;;;;;;;;30.20;64.70;;;;;;5027524;28;19913;-78
2022/08/04 14:18:57;;;;;;;;;;;30.20;64.70;;;;;;5028171;28;19917;-78
2022/08/04 14:21:22;;;;;;;;;;;30.20;64.70;;;;;;5021583;28;19917;-78
2022/08/04 14:23:52;;;;;;;;;;;30.20;64.70;;;;;;5030749;28;19920;-78
2022/08/04 14:26:18;;;;;;;;;;;30.20;64.80;;;;;;5003583;28;19912;-78
2022/08/04 14:28:44;;;;;;;;;;;30.20;64.80;;;;;;5021983;28;19917;-77
2022/08/04 14:31:10;;;;;;;;;;;30.20;64.80;;;;;;5032480;28;20564;-78
2022/08/04 14:33:37;;;;;;;;;;;30.20;64.70;;;;;;5021236;28;19924;-78
2022/08/04 14:36:03;;;;;;;;;;;30.10;64.80;;;;;;5040203;28;20276;-78
2022/08/04 14:38:41;;;;;;;;;;;30.10;65.00;;;;;;5038458;28;19913;-78
2022/08/04 14:41:06;;;;;;;;;;;30.00;64.80;;;;;;5027991;28;19939;-77